Latest Weather Observations for Marree Airport

IDS60801

Issued at 12:31 pm CST Thursday 25 May 2017 (issued every 30 minutes, with the page automatically refreshed every 10 minutes)

About weather observations | Map of weather stations | Latest weather observations for SA | Other Formats
Station Details ID: 017126 Name: MARREE AERO Lat: -29.66 Lon: 138.07 Height: 50.0 m
Data from the previous 72 hours. | See also: Recent months at Marree Airport
Date/Time
CST
Temp
°C
App
Temp
°C
Dew
Point
°C
Rel
Hum
%
Delta-T
°C
Wind Press
QNH
hPa
Press
MSL
hPa
Rain since
9am
mm
Dir  Spd
km/h
Gust
km/h
Spd
kts
Gust
kts
25/12:30pm 21.4 18.9 8.3 43 6.9 SSE 11 17 6 9 1023.0 1023.0 0.0
25/12:00pm 20.9 19.2 8.2 44 6.6 SSW 7 13 4 7 1023.3 1023.3 0.0
25/11:30am 20.8 19.4 7.4 42 6.9 E 4 11 2 6 1023.7 1023.7 0.0
25/11:00am 19.6 17.7 8.9 50 5.6 SE 9 19 5 10 1024.0 1024.0 0.0
25/10:30am 18.8 17.1 9.8 56 4.8 SSE 9 13 5 7 1024.2 1024.2 0.0
25/10:00am 17.0 15.2 9.4 61 4.0 SE 9 13 5 7 1024.4 1024.4 0.0
25/09:30am 14.8 12.8 8.7 67 3.1 SE 9 13 5 7 1024.4 1024.4 0.0
25/09:00am 12.7 10.3 8.6 76 2.0 SE 11 13 6 7 1024.3 1024.3 0.0
25/08:30am 10.9 8.2 9.0 88 0.9 SSE 13 15 7 8 1024.2 1024.2 0.0
25/08:00am 9.0 6.5 8.2 95 0.4 SSE 11 13 6 7 1023.9 1023.9 0.0
25/07:30am 6.4 3.0 5.7 95 0.3 SE 13 13 7 7 1023.6 1023.6 0.0
25/07:00am 5.8 2.6 5.1 95 0.3 SE 11 11 6 6 1023.3 1023.3 0.0
25/06:30am 6.2 3.9 5.5 95 0.3 SE 7 9 4 5 1023.0 1023.0 0.0
25/06:00am 6.1 3.7 5.2 94 0.4 SSE 7 11 4 6 1022.7 1022.7 0.0
25/05:30am 6.8 4.5 5.9 94 0.4 SSE 7 9 4 5 1022.6 1022.6 0.0
25/05:00am 7.1 4.1 6.2 94 0.4 S 11 13 6 7 1022.5 1022.5 0.0
25/04:30am 7.9 5.1 7.1 95 0.4 S 11 11 6 6 1022.5 1022.5 0.0
25/04:00am 8.0 6.0 7.1 94 0.4 S 7 9 4 5 1022.6 1022.6 0.0
25/03:30am 7.7 5.5 6.3 91 0.6 SSW 7 7 4 4 1022.7 1022.7 0.0
25/03:00am 7.6 5.9 6.1 90 0.7 SW 4 9 2 5 1022.9 1022.9 0.0
25/02:30am 7.5 6.4 5.3 86 1.0 CALM 0 0 0 0 1022.9 1022.9 0.0
25/02:00am 8.5 7.2 6.0 84 1.1 N 2 7 1 4 1022.9 1022.9 0.0
25/01:30am 9.5 7.3 6.4 81 1.4 ENE 7 15 4 8 1023.1 1023.1 0.0
25/01:00am 9.0 7.2 5.4 78 1.6 N 4 6 2 3 1023.0 1023.0 0.0
25/12:30am 10.5 8.4 6.8 78 1.7 E 7 9 4 5 1023.1 1023.1 0.0
25/12:00am 10.4 8.4 6.2 75 1.9 SE 6 9 3 5 1023.2 1023.2 0.0
 
Date/Time
CST
Temp
°C
App
Temp
°C
Dew
Point
°C
Rel
Hum
%
Delta-T
°C
Wind Press
QNH
hPa
Press
MSL
hPa
Rain since
9am
mm
Dir  Spd
km/h
Gust
km/h
Spd
kts
Gust
kts
24/11:30pm 11.5 10.9 7.6 77 1.9 CALM 0 6 0 3 1023.4 1023.4 0.0
24/11:00pm 11.3 10.3 7.2 76 2.0 S 2 7 1 4 1023.5 1023.5 0.0
24/10:30pm 12.2 9.9 7.3 72 2.4 S 9 11 5 6 1023.3 1023.3 0.0
24/10:00pm 12.8 10.2 7.7 71 2.5 S 11 17 6 9 1023.3 1023.3 0.0
24/09:30pm 13.9 9.8 7.9 67 3.0 SSW 19 19 10 10 1023.3 1023.3 0.0
24/09:00pm 14.5 10.8 8.0 65 3.2 S 17 19 9 10 1023.3 1023.3 0.0
24/08:30pm 13.9 10.4 7.0 63 3.3 S 15 17 8 9 1023.4 1023.4 0.0
24/08:00pm 14.7 10.8 7.3 61 3.6 SSW 17 17 9 9 1023.3 1023.3 0.0
24/07:30pm 15.2 11.8 7.5 60 3.8 SSW 15 17 8 9 1022.9 1022.9 0.0
24/07:00pm 16.1 13.1 7.6 57 4.3 S 13 15 7 8 1022.6 1022.6 0.0
24/06:30pm 16.2 13.5 7.4 56 4.4 S 11 13 6 7 1022.2 1022.2 0.0
24/06:00pm 17.6 14.6 7.6 52 5.0 SSE 13 13 7 7 1021.9 1021.9 0.0
24/05:30pm 19.3 16.8 8.0 48 5.8 SSE 11 13 6 7 1021.9 1021.9 0.0
24/05:00pm 20.8 17.9 8.1 44 6.6 SSE 13 20 7 11 1021.7 1021.7 0.0
24/04:30pm 21.4 18.5 8.0 42 7.0 SE 13 20 7 11 1021.7 1021.7 0.0
24/04:00pm 21.6 18.9 7.4 40 7.3 SSE 11 17 6 9 1021.6 1021.6 0.0
24/03:30pm 21.6 18.5 7.4 40 7.3 S 13 17 7 9 1021.7 1021.7 0.0
24/03:00pm 22.1 18.8 7.9 40 7.4 SE 15 22 8 12 1021.6 1021.6 0.0
24/02:30pm 22.0 18.5 7.4 39 7.5 SSE 15 26 8 14 1021.7 1021.7 0.0
24/02:00pm 22.1 18.4 7.9 40 7.4 SSE 17 20 9 11 1021.8 1021.8 0.0
24/01:30pm 21.8 17.7 8.0 41 7.2 S 19 26 10 14 1022.0 1022.0 0.0
24/01:00pm 21.9 17.8 8.8 43 7.0 S 20 26 11 14 1022.4 1022.4 0.0
24/12:30pm 21.5 17.7 9.1 45 6.6 S 19 28 10 15 1022.9 1022.9 0.0
24/12:00pm 20.9 17.6 9.5 48 6.1 SSW 17 26 9 14 1023.5 1023.5 0.0
24/11:30am 20.0 16.3 9.3 50 5.7 S 19 26 10 14 1023.9 1023.9 0.0
24/11:00am 19.6 15.5 10.0 54 5.1 S 22 28 12 15 1024.2 1024.2 0.0
24/10:30am 18.7 15.0 10.0 57 4.6 S 20 28 11 15 1024.5 1024.5 0.0
24/10:00am 17.9 14.2 9.5 58 4.4 S 19 24 10 13 1024.8 1024.8 0.0
24/09:30am 16.8 12.4 9.0 60 4.0 S 22 28 12 15 1024.7 1024.7 0.0
24/09:00am 15.4 11.3 7.9 61 3.7 S 19 24 10 13 1024.5 1024.5 0.0
24/08:30am 12.1 9.0 5.7 65 3.0 SSE 11 13 6 7 1024.5 1024.5 0.0
24/08:00am 9.9 6.3 4.9 71 2.3 SSE 13 15 7 8 1024.2 1024.2 0.0
24/07:30am 7.6 4.9 3.5 75 1.7 SE 7 9 4 5 1024.1 1024.1 0.0
24/07:00am 7.9 5.3 4.1 77 1.7 ESE 7 11 4 6 1023.7 1023.7 0.0
24/06:30am 8.5 5.5 3.9 73 2.0 SSE 9 13 5 7 1023.5 1023.5 0.0
24/06:00am 9.0 5.7 4.4 73 2.0 SSE 11 13 6 7 1023.2 1023.2 0.0
24/05:30am 10.7 5.8 5.0 68 2.6 S 20 20 11 11 1022.9 1022.9 0.0
24/05:00am 10.4 5.5 4.1 65 2.8 SSW 19 19 10 10 1022.6 1022.6 0.0
24/04:30am 10.7 6.1 3.7 62 3.1 SW 17 19 9 10 1022.4 1022.4 0.0
24/04:00am 10.7 6.0 3.3 60 3.2 SW 17 20 9 11 1022.4 1022.4 0.0
24/03:30am 8.9 3.7 2.3 63 2.8 SW 19 20 10 11 1022.2 1022.2 0.0
24/03:00am 8.3 3.4 1.7 63 2.7 SW 17 19 9 10 1022.3 1022.3 0.0
24/02:30am 8.6 5.6 1.1 59 3.0 SSW 6 7 3 4 1022.5 1022.5 0.0
24/02:00am 9.1 7.4 1.8 60 3.0 CALM 0 0 0 0 1022.4 1022.4 0.0
24/01:30am 9.2 6.8 1.9 60 3.0 SE 4 7 2 4 1022.4 1022.4 0.0
24/01:00am 9.0 5.2 1.9 61 3.0 SSW 11 13 6 7 1022.3 1022.3 0.0
24/12:30am 8.5 5.0 1.2 60 3.0 SW 9 11 5 6 1022.3 1022.3 0.0
24/12:00am 8.9 4.6 1.3 59 3.1 SSW 13 15 7 8 1022.2 1022.2 0.0
 
Date/Time
CST
Temp
°C
App
Temp
°C
Dew
Point
°C
Rel
Hum
%
Delta-T
°C
Wind Press
QNH
hPa
Press
MSL
hPa
Rain since
9am
mm
Dir  Spd
km/h
Gust
km/h
Spd
kts
Gust
kts
23/11:30pm 9.7 5.1 1.6 57 3.4 SSW 15 17 8 9 1022.3 1022.3 0.0
23/11:00pm 11.2 6.3 1.7 52 4.0 SSW 17 17 9 9 1022.4 1022.4 0.0
23/10:30pm 12.2 7.3 1.8 49 4.4 SSW 17 19 9 10 1022.3 1022.3 0.0
23/10:00pm 13.0 8.1 2.0 47 4.8 SSW 17 19 9 10 1022.3 1022.3 0.0
23/09:30pm 11.2 6.9 1.2 50 4.2 SW 13 17 7 9 1022.1 1022.1 0.0
23/09:00pm 11.3 7.8 1.3 50 4.2 SSW 9 15 5 8 1021.9 1021.9 0.0
23/08:30pm 12.0 7.3 1.1 47 4.6 WSW 15 17 8 9 1021.5 1021.5 0.0
23/08:00pm 14.1 11.0 1.4 42 5.5 SW 7 9 4 5 1021.2 1021.2 0.0
23/07:30pm 15.0 10.7 1.2 39 6.0 WSW 13 15 7 8 1020.8 1020.7 0.0
23/07:00pm 16.7 11.7 1.6 36 6.7 WSW 17 20 9 11 1020.5 1020.4 0.0
23/06:30pm 18.2 12.9 2.1 34 7.3 WSW 19 22 10 12 1020.0 1019.9 0.0
23/06:00pm 19.2 13.2 3.4 35 7.4 WSW 24 32 13 17 1019.6 1019.5 0.0
23/05:30pm 20.3 15.0 4.8 36 7.5 WSW 22 30 12 16 1019.1 1019.0 0.0
23/05:00pm 21.6 14.7 4.7 33 8.3 W 30 39 16 21 1018.9 1018.8 0.0
23/04:30pm 22.4 15.5 4.5 31 8.8 WSW 30 41 16 22 1018.3 1018.2 0.0
23/04:00pm 23.3 16.8 4.8 30 9.2 WSW 28 37 15 20 1018.0 1017.9 0.0
23/03:30pm 23.7 16.3 5.1 30 9.3 WSW 33 46 18 25 1018.0 1017.9 0.0
23/03:00pm 23.8 16.0 4.7 29 9.5 WSW 35 50 19 27 1018.0 1017.9 0.0
23/02:56pm 23.8 16.5 4.7 29 9.5 WSW 32 50 17 27 1018.0 1017.9 0.0
23/02:30pm 24.2 17.1 5.5 30 9.5 WSW 32 43 17 23 1018.0 1017.9 0.0
23/02:00pm 24.5 17.4 5.3 29 9.7 WSW 32 44 17 24 1017.9 1017.8 0.0
23/01:30pm 24.6 17.8 4.9 28 9.9 WSW 30 41 16 22 1018.1 1018.0 0.0
23/01:00pm 23.8 17.5 5.7 31 9.2 SW 28 37 15 20 1018.5 1018.4 0.0
23/12:30pm 23.6 17.8 6.4 33 8.8 SSW 26 35 14 19 1018.9 1018.8 0.0
23/12:00pm 23.1 16.6 6.4 34 8.5 SSW 30 41 16 22 1019.4 1019.3 0.0
23/11:30am 22.7 16.8 7.7 38 7.8 SSW 28 35 15 19 1019.8 1019.7 0.0
23/11:00am 22.7 16.5 8.0 39 7.7 SSW 30 35 16 19 1019.9 1019.8 0.0
23/10:30am 22.2 16.5 8.3 41 7.3 SSW 28 33 15 18 1019.8 1019.7 0.0
23/10:00am 21.9 16.6 8.4 42 7.1 S 26 37 14 20 1019.6 1019.5 0.0
23/09:30am 20.7 14.9 9.3 48 6.1 S 30 37 16 20 1019.5 1019.4 0.0
23/09:00am 19.0 14.5 10.0 56 4.8 S 24 30 13 16 1019.5 1019.4 0.0
23/08:30am 17.4 12.3 10.5 64 3.7 S 28 33 15 18 1019.3 1019.2 0.0
23/08:00am 16.6 11.5 10.5 67 3.2 SSW 28 33 15 18 1019.1 1019.0 0.0
23/07:30am 15.8 10.7 10.6 71 2.8 SSW 28 33 15 18 1018.6 1018.5 0.0
23/07:00am 15.5 10.8 10.5 72 2.6 S 26 32 14 17 1018.2 1018.1 0.0
23/06:30am 15.4 11.8 10.4 72 2.6 SSE 20 28 11 15 1018.1 1018.0 0.0
23/06:00am 15.5 10.6 9.8 69 3.0 S 26 32 14 17 1017.8 1017.7 0.0
23/05:30am 14.7 11.8 9.7 72 2.6 S 15 20 8 11 1017.3 1017.2 0.0
23/05:00am 15.6 11.6 10.6 72 2.7 ESE 22 28 12 15 1016.9 1016.8 0.0
23/04:30am 14.7 12.0 10.3 75 2.3 SE 15 20 8 11 1016.8 1016.7 0.0
23/04:00am 14.9 11.6 9.7 71 2.7 SE 17 20 9 11 1016.2 1016.1 0.0
23/03:30am 12.5 9.3 6.8 68 2.7 ESE 13 15 7 8 1016.0 1015.9 0.0
23/03:00am 12.4 9.3 8.7 78 1.8 WSW 15 19 8 10 1015.9 1015.8 0.0
23/02:30am 11.9 11.2 8.4 79 1.7 N 2 6 1 3 1015.9 1015.8 0.0
23/02:00am 13.3 13.0 8.6 73 2.4 CALM 0 0 0 0 1015.9 1015.8 0.0
23/01:30am 13.2 11.6 7.9 70 2.6 SE 6 7 3 4 1015.8 1015.7 0.0
23/01:00am 14.1 12.3 7.9 66 3.1 NE 7 9 4 5 1015.7 1015.6 0.0
23/12:30am 14.6 12.6 8.5 67 3.1 N 9 17 5 9 1016.1 1016.0 0.0
23/12:00am 14.6 12.3 9.0 69 2.9 N 11 11 6 6 1016.2 1016.1 0.0
 
Date/Time
CST
Temp
°C
App
Temp
°C
Dew
Point
°C
Rel
Hum
%
Delta-T
°C
Wind Press
QNH
hPa
Press
MSL
hPa
Rain since
9am
mm
Dir  Spd
km/h
Gust
km/h
Spd
kts
Gust
kts
22/11:30pm 14.7 11.9 8.4 66 3.2 N 13 15 7 8 1016.2 1016.1 0.0
22/11:00pm 15.0 13.4 11.4 79 1.9 NE 11 13 6 7 1016.3 1016.2 0.0
22/10:30pm 15.7 14.6 10.0 69 3.0 E 6 7 3 4 1016.3 1016.2 0.0
22/10:00pm 17.3 17.2 9.5 60 4.1 CALM 0 0 0 0 1016.0 1015.9 0.0
22/09:30pm 17.5 17.7 10.6 64 3.7 CALM 0 0 0 0 1015.9 1015.8 0.0
22/09:00pm 18.2 16.7 8.5 53 5.0 NNE 6 7 3 4 1015.7 1015.6 0.0
22/08:30pm 18.6 17.3 9.9 57 4.6 W 7 7 4 4 1015.6 1015.5 0.0
22/08:00pm 19.5 16.9 7.9 47 6.0 NW 11 13 6 7 1015.5 1015.4 0.0
22/07:30pm 21.0 18.1 8.0 43 6.8 NNW 13 19 7 10 1015.1 1015.0 0.0
22/07:00pm 22.5 19.0 8.6 41 7.4 N 17 20 9 11 1014.5 1014.4 0.0
22/06:30pm 24.3 20.5 5.6 30 9.5 N 15 19 8 10 1014.5 1014.4 0.0
22/06:00pm 24.2 20.7 5.5 30 9.5 N 13 15 7 8 1014.3 1014.2 0.0
22/05:30pm 25.3 21.2 6.0 29 9.9 N 17 20 9 11 1014.0 1013.9 0.0
22/05:00pm 26.9 21.8 5.8 26 10.9 N 22 30 12 16 1013.8 1013.7 0.0
22/04:30pm 27.6 22.2 6.4 26 11.2 N 24 32 13 17 1013.7 1013.6 0.0
22/04:00pm 28.3 22.4 5.8 24 11.8 N 26 37 14 20 1013.8 1013.7 0.0
22/03:30pm 28.0 22.3 8.3 29 10.7 N 28 35 15 19 1013.9 1013.8 0.0
22/03:00pm 27.5 22.0 9.3 32 10.1 N 28 39 15 21 1014.1 1014.0 0.0
22/02:30pm 27.9 22.2 9.7 32 10.1 N 30 41 16 22 1014.3 1014.2 0.0
22/02:00pm 27.5 22.2 9.8 33 9.9 N 28 35 15 19 1014.4 1014.3 0.0
22/01:30pm 26.9 21.0 10.6 36 9.2 NNE 32 41 17 22 1014.9 1014.8 0.0
22/01:00pm 27.1 21.1 12.0 39 8.7 NNE 35 46 19 25 1015.4 1015.3 0.0

Other Formats:

Comma delimited format used in spreadsheet applications
http://www.bom.gov.au/fwo/IDS60801/IDS60801.95480.axf

JavaScript Object Notation format (JSON) in row-major order
http://www.bom.gov.au/fwo/IDS60801/IDS60801.95480.json